Fort Pierce, FL

19:58 EST le 01 Mars 2015 (GMT -0500)
Saint Lucie County International | Change Station
CLOSE
Current Station
Aéroport
Location: Ft Pierce,
Altitude: 23 ft
Stations météo à proximité

Alt. 23 ft 27.50 °N, 80.38 °W | Updated 5 minutes ago

Ciel dégagé
Ciel dégagé
71 ° F
Paraît 71 ° F
N
7
Vent Variable Vent de ESE

Aujourd'hui
Haut(e) -- | Bas -- ° F
--% Risque de précip.
Hier
Haut(e) -- | Bas -- ° F
Precip. -- pouce
6:46 AM 6:22 PM
Lune gibbeuse croissante, 88% visible
Pression 30.29 pouce
Visibilité 10.0 Miles terrestres
Nuages Ciel dégagé
Point de rosée 68 ° F
Humidité 90%
Précipitations 0.00 pouce
Profondeur de la couche neigeuse Non disponible.
UV 0 sur 12
Pollen 10.50 sur 12
Qualité de l'air Non disponible.
Flu Activity Non disponible.
METAR KFPR 020053Z 11006KT 10SM CLR 22/20 A3029 RMK AO2 SLP256 T02170200

More Conditions Fewer Conditions

Pression 30.29 pouce
Visibilité 10.0 Miles terrestres
Nuages Ciel dégagé
Point de rosée 68 ° F
Humidité 90%
Précipitations 0.00 pouce
Profondeur de la couche neigeuse Non disponible.
UV 0 sur 12
Pollen 10.50 sur 12
Qualité de l'air Non disponible.
Flu Activity Non disponible.
METAR KFPR 020053Z 11006KT 10SM CLR 22/20 A3029 RMK AO2 SLP256 T02170200

More Conditions Fewer Conditions

10-Day Weather Forecast

Almanac

Astronomie

Mar. 01, 2015 Lever Coucher
Temps réel
Crépuscule civil
Crépuscule nautique
Crépuscule astronomique
Lune
Durée de lumière visible
Longueur du jour
Tomorrow will be .
, % of the Moon is Illuminated

Extrêmes aujourd'hui

State Highs State Lows

Community

WunderPhotos

Upload Photos

1,801,659 Photos téléchargées !

WunderBlogs® & News

Nearby

Qualité de l'air

  Qualité de l'air Indice de la qualité de l'air Polluant
Not available.

Épaisseur de neige

Station Depth Altitude

Activité sismique

Ville Distance Mag. Time & Date
Minimum magnitude displayed is 2.5.

Températures des eaux côtières

Lieu Température

Stations météo à proximité